createdAt,value
2023-04-17T00:01:51.594Z,103063.00
2023-04-17T00:04:22.209Z,103063.00
2023-04-17T00:06:53.137Z,103069.20
2023-04-17T00:09:22.452Z,103069.00
2023-04-17T00:11:50.248Z,103071.60
2023-04-17T00:14:17.868Z,103077.80
2023-04-17T00:16:45.257Z,103073.00
2023-04-17T00:19:15.657Z,103075.80
2023-04-17T00:21:42.758Z,103075.40
2023-04-17T00:24:09.557Z,103079.60
2023-04-17T00:26:36.224Z,103076.20
2023-04-17T00:29:05.277Z,103082.40
2023-04-17T00:31:31.758Z,103081.20
2023-04-17T00:34:00.969Z,103080.60
2023-04-17T00:36:31.243Z,103073.60
2023-04-17T00:38:58.673Z,103073.40
2023-04-17T00:41:29.242Z,103074.20
2023-04-17T00:43:56.594Z,103072.40
2023-04-17T00:46:24.113Z,103075.40
2023-04-17T00:48:52.668Z,103072.40
2023-04-17T00:51:20.769Z,103076.40
2023-04-17T00:53:51.542Z,103082.20
2023-04-17T00:56:21.551Z,103083.80
2023-04-17T00:58:53.622Z,103084.00
2023-04-17T01:01:22.165Z,103090.80
2023-04-17T01:03:50.757Z,103094.40
2023-04-17T01:06:20.739Z,103093.40
2023-04-17T01:08:50.856Z,103092.00
2023-04-17T01:11:17.232Z,103090.80
2023-04-17T01:13:49.179Z,103096.00
2023-04-17T01:16:17.362Z,103096.40
2023-04-17T01:18:47.472Z,103100.40
2023-04-17T01:21:19.431Z,103101.20
2023-04-17T01:23:53.439Z,103105.20
2023-04-17T01:26:23.022Z,103105.00
2023-04-17T01:28:57.030Z,103108.40
2023-04-17T01:31:28.735Z,103108.80
2023-04-17T01:33:55.420Z,103113.00
2023-04-17T01:36:28.389Z,103113.20
2023-04-17T01:38:54.799Z,103116.60
2023-04-17T01:41:21.324Z,103118.20
2023-04-17T01:43:49.638Z,103123.20
2023-04-17T01:46:18.896Z,103123.60
2023-04-17T01:48:47.952Z,103127.00
2023-04-17T01:51:16.989Z,103127.60
2023-04-17T01:53:44.778Z,103126.60
2023-04-17T01:56:13.214Z,103129.40
2023-04-17T01:58:40.943Z,103132.80
2023-04-17T02:01:08.805Z,103136.80
2023-04-17T02:03:35.924Z,103140.20
2023-04-17T02:06:03.132Z,103139.40
2023-04-17T02:08:29.632Z,103139.60
2023-04-17T02:10:56.327Z,103145.00
2023-04-17T02:13:24.541Z,103140.20
2023-04-17T02:15:51.711Z,103145.80
2023-04-17T02:18:21.457Z,103145.20
2023-04-17T02:20:50.395Z,103151.40
2023-04-17T02:23:21.317Z,103157.20
2023-04-17T02:25:47.796Z,103154.60
2023-04-17T02:28:15.188Z,103153.20
2023-04-17T02:30:42.698Z,103157.20
2023-04-17T02:33:09.357Z,103158.40
2023-04-17T02:35:37.334Z,103161.60
2023-04-17T02:38:05.518Z,103164.00
2023-04-17T02:40:34.350Z,103166.00
2023-04-17T02:43:02.579Z,103166.40
2023-04-17T02:45:29.057Z,103172.20
2023-04-17T02:47:55.952Z,103171.60
2023-04-17T02:50:22.722Z,103171.20
2023-04-17T02:52:50.565Z,103170.00
2023-04-17T02:55:21.077Z,103174.40
2023-04-17T02:57:52.966Z,103176.00
2023-04-17T03:00:20.161Z,103178.80
2023-04-17T03:02:48.191Z,103182.00
2023-04-17T03:05:22.697Z,103186.60
2023-04-17T03:07:51.926Z,103189.40
2023-04-17T03:10:19.588Z,103196.00
2023-04-17T03:12:46.960Z,103197.40
2023-04-17T03:15:16.082Z,103200.40
2023-04-17T03:17:42.738Z,103201.40
2023-04-17T03:20:09.622Z,103205.00
2023-04-17T03:22:37.888Z,103208.80
2023-04-17T03:25:05.707Z,103212.60
2023-04-17T03:27:33.049Z,103214.00
2023-04-17T03:29:59.425Z,103216.80
2023-04-17T03:32:26.094Z,103219.80
2023-04-17T03:34:53.424Z,103220.00
2023-04-17T03:37:20.767Z,103223.00
2023-04-17T03:39:50.448Z,103224.20
2023-04-17T03:42:22.082Z,103227.80
2023-04-17T03:44:50.015Z,103227.40
2023-04-17T03:47:18.153Z,103228.20
2023-04-17T03:49:45.093Z,103226.20
2023-04-17T03:52:11.847Z,103232.80
2023-04-17T03:54:38.368Z,103235.40
2023-04-17T03:57:04.778Z,103239.60
2023-04-17T03:59:31.464Z,103239.40
2023-04-17T04:01:58.346Z,103246.80
2023-04-17T04:04:27.118Z,103241.40
2023-04-17T04:06:58.166Z,103249.20
2023-04-17T04:09:26.603Z,103254.60
2023-04-17T04:11:55.407Z,103252.80
2023-04-17T04:14:23.626Z,103251.60
2023-04-17T04:16:50.457Z,103256.80
2023-04-17T04:19:17.011Z,103256.00
2023-04-17T04:21:45.412Z,103255.80
2023-04-17T04:24:14.001Z,103256.40
2023-04-17T04:26:41.467Z,103255.80
2023-04-17T04:29:09.047Z,103256.00
2023-04-17T04:31:37.270Z,103253.00
2023-04-17T04:34:09.724Z,103259.40
2023-04-17T04:36:41.291Z,103261.80
2023-04-17T04:39:08.135Z,103263.80
2023-04-17T04:41:35.400Z,103269.00
2023-04-17T04:44:06.146Z,103268.60
2023-04-17T04:46:32.928Z,103270.60
2023-04-17T04:48:59.675Z,103273.60
2023-04-17T04:51:29.268Z,103272.60
2023-04-17T04:53:56.825Z,103272.40
2023-04-17T04:56:24.458Z,103275.40
2023-04-17T04:58:51.727Z,103280.20
2023-04-17T05:01:19.264Z,103280.60
2023-04-17T05:03:46.076Z,103282.20
2023-04-17T05:06:13.891Z,103285.00
2023-04-17T05:08:41.148Z,103283.80
2023-04-17T05:11:10.820Z,103281.80
2023-04-17T05:13:37.340Z,103282.60
2023-04-17T05:16:05.169Z,103292.40
2023-04-17T05:18:31.916Z,103293.80
2023-04-17T05:21:00.922Z,103298.80
2023-04-17T05:23:29.588Z,103295.80
2023-04-17T05:25:56.210Z,103296.40
2023-04-17T05:28:26.717Z,103295.60
2023-04-17T05:30:59.002Z,103297.00
2023-04-17T05:33:27.255Z,103301.40
2023-04-17T05:35:56.582Z,103303.60
2023-04-17T05:38:23.501Z,103308.00
2023-04-17T05:40:52.908Z,103306.00
2023-04-17T05:43:19.415Z,103311.80
2023-04-17T05:45:47.071Z,103313.00
2023-04-17T05:48:13.638Z,103319.60
2023-04-17T05:50:43.249Z,103316.40
2023-04-17T05:53:10.451Z,103322.00
2023-04-17T05:55:42.263Z,103322.20
2023-04-17T05:58:23.179Z,103327.40
2023-04-17T06:00:51.918Z,103326.00
2023-04-17T06:03:21.352Z,103322.60
2023-04-17T06:05:51.186Z,103328.60
2023-04-17T06:08:19.076Z,103326.00
2023-04-17T06:10:56.747Z,103328.60
2023-04-17T06:13:24.698Z,103330.40
2023-04-17T06:15:52.267Z,103331.60
2023-04-17T06:18:18.787Z,103328.20
2023-04-17T06:20:48.177Z,103337.20
2023-04-17T06:23:19.513Z,103337.80
2023-04-17T06:25:49.071Z,103342.40
2023-04-17T06:28:18.312Z,103347.80
2023-04-17T06:30:47.691Z,103349.20
2023-04-17T06:33:14.919Z,103349.20
2023-04-17T06:35:42.891Z,103350.00
2023-04-17T06:38:10.449Z,103346.00
2023-04-17T06:40:36.928Z,103349.00
2023-04-17T06:43:03.373Z,103358.00
2023-04-17T06:45:33.637Z,103363.00
2023-04-17T06:48:01.463Z,103366.00
2023-04-17T06:50:28.530Z,103368.00
2023-04-17T06:52:54.981Z,103368.20
2023-04-17T06:55:21.826Z,103372.80
2023-04-17T06:57:48.463Z,103378.40
2023-04-17T07:00:19.409Z,103375.60
2023-04-17T07:02:50.330Z,103376.60
2023-04-17T07:05:18.946Z,103376.40
2023-04-17T07:07:45.618Z,103377.00
2023-04-17T07:10:15.373Z,103377.40
2023-04-17T07:12:42.056Z,103380.00
2023-04-17T07:15:09.402Z,103378.60
2023-04-17T07:17:36.852Z,103382.60
2023-04-17T07:20:07.323Z,103387.60
2023-04-17T07:22:37.167Z,103386.60
2023-04-17T07:25:05.834Z,103392.60
2023-04-17T07:27:32.606Z,103392.00
2023-04-17T07:29:59.021Z,103391.60
2023-04-17T07:32:25.562Z,103393.80
2023-04-17T07:34:52.352Z,103389.00
2023-04-17T07:37:21.695Z,103394.20
2023-04-17T07:39:50.005Z,103390.60
2023-04-17T07:42:17.432Z,103389.80
2023-04-17T07:44:45.665Z,103396.40
2023-04-17T07:47:13.757Z,103395.60
2023-04-17T07:49:40.582Z,103390.60
2023-04-17T07:52:07.362Z,103392.20
2023-04-17T07:54:34.011Z,103394.00
2023-04-17T07:57:03.108Z,103389.60
2023-04-17T07:59:31.020Z,103395.80
2023-04-17T08:01:57.959Z,103397.80
2023-04-17T08:04:28.902Z,103394.60
2023-04-17T08:06:57.348Z,103398.20
2023-04-17T08:09:25.245Z,103391.80
2023-04-17T08:11:57.531Z,103393.60
2023-04-17T08:14:26.042Z,103391.40
2023-04-17T08:16:53.047Z,103395.40
2023-04-17T08:19:19.597Z,103388.20
2023-04-17T08:21:51.975Z,103386.80
2023-04-17T08:24:19.864Z,103386.80
2023-04-17T08:26:49.862Z,103386.60
2023-04-17T08:29:18.113Z,103383.80
2023-04-17T08:31:45.058Z,103383.60
2023-04-17T08:34:19.005Z,103380.20
2023-04-17T08:36:47.375Z,103383.40
2023-04-17T08:39:16.694Z,103382.20
2023-04-17T08:41:58.392Z,103384.20
2023-04-17T08:44:29.975Z,103384.00
2023-04-17T08:47:00.304Z,103377.20
2023-04-17T08:49:35.884Z,103375.00
2023-04-17T08:52:07.422Z,103376.40
2023-04-17T08:54:35.132Z,103375.40
2023-04-17T08:57:03.838Z,103371.80
2023-04-17T08:59:31.651Z,103370.20
2023-04-17T09:02:08.221Z,103372.60
2023-04-17T09:04:44.307Z,103372.00
2023-04-17T09:07:15.869Z,103374.80
2023-04-17T09:09:55.897Z,103378.00
2023-04-17T09:12:25.435Z,103386.80
2023-04-17T09:14:52.668Z,103394.80
2023-04-17T09:17:21.253Z,103393.80
2023-04-17T09:20:11.757Z,103390.80
2023-04-17T09:22:40.258Z,103388.80
2023-04-17T09:25:22.582Z,103394.00
2023-04-17T09:27:51.986Z,103400.20
2023-04-17T09:30:19.028Z,103398.60
2023-04-17T09:32:47.279Z,103398.60
2023-04-17T09:35:25.658Z,103402.20
2023-04-17T09:38:01.181Z,103397.80
2023-04-17T09:40:41.076Z,103395.60
2023-04-17T09:43:10.139Z,103397.60
2023-04-17T09:45:40.966Z,103405.40
2023-04-17T09:48:10.843Z,103411.60
2023-04-17T09:50:42.351Z,103412.40
2023-04-17T09:53:09.582Z,103416.00
2023-04-17T09:55:38.922Z,103417.20
2023-04-17T09:58:08.051Z,103423.40
2023-04-17T10:00:36.110Z,103422.60
2023-04-17T10:03:04.239Z,103420.40
2023-04-17T10:05:31.784Z,103430.00
2023-04-17T10:07:58.897Z,103426.00
2023-04-17T10:10:33.073Z,103431.20
2023-04-17T10:13:01.898Z,103436.40
2023-04-17T10:15:30.467Z,103440.20
2023-04-17T10:18:25.238Z,103441.60
2023-04-17T10:20:54.697Z,103445.00
2023-04-17T10:23:39.687Z,103451.00
2023-04-17T10:26:24.625Z,103457.00
2023-04-17T10:28:56.581Z,103459.40
2023-04-17T10:32:30.143Z,103465.40
2023-04-17T10:35:23.278Z,103470.60
2023-04-17T10:37:49.574Z,103476.60
2023-04-17T10:40:24.131Z,103483.00
2023-04-17T10:45:55.960Z,103492.80
2023-04-17T10:48:49.938Z,103497.20
2023-04-17T10:51:22.542Z,103491.40
2023-04-17T10:54:05.170Z,103495.20
2023-04-17T10:56:47.598Z,103496.40
2023-04-17T10:59:18.590Z,103497.40
2023-04-17T11:01:48.345Z,103502.20
2023-04-17T11:04:28.721Z,103500.20
2023-04-17T11:06:56.008Z,103507.00
2023-04-17T11:09:27.638Z,103506.80
2023-04-17T11:12:02.454Z,103506.20
2023-04-17T11:14:32.355Z,103505.00
2023-04-17T11:17:02.011Z,103507.20
2023-04-17T11:19:32.481Z,103511.40
2023-04-17T11:22:03.731Z,103510.60
2023-04-17T11:24:31.668Z,103508.00
2023-04-17T11:27:01.462Z,103511.80
2023-04-17T11:29:29.832Z,103514.60
2023-04-17T11:32:02.058Z,103518.00
2023-04-17T11:34:31.377Z,103521.80
2023-04-17T11:37:00.528Z,103524.20
2023-04-17T11:39:52.652Z,103527.80
2023-04-17T11:42:28.104Z,103532.60
2023-04-17T11:45:06.122Z,103535.20
2023-04-17T11:47:32.835Z,103536.40
2023-04-17T11:49:59.816Z,103543.00
2023-04-17T11:52:29.932Z,103547.40
2023-04-17T11:55:01.832Z,103550.60
2023-04-17T11:57:28.538Z,103553.00
2023-04-17T11:59:55.318Z,103554.00
2023-04-17T12:02:32.963Z,103553.40
2023-04-17T12:05:13.833Z,103559.00
2023-04-17T12:07:41.011Z,103551.40
2023-04-17T12:10:09.545Z,103563.80
2023-04-17T12:12:37.177Z,103559.80
2023-04-17T12:15:05.109Z,103563.60
2023-04-17T12:17:32.456Z,103568.00
2023-04-17T12:20:07.809Z,103574.00
2023-04-17T12:22:34.507Z,103584.00
2023-04-17T12:25:03.033Z,103578.00
2023-04-17T12:27:36.228Z,103590.40
2023-04-17T12:30:03.188Z,103600.40
2023-04-17T12:32:31.664Z,103602.80
2023-04-17T12:34:59.051Z,103601.00
2023-04-17T12:37:26.822Z,103592.80
2023-04-17T12:39:54.778Z,103598.20
2023-04-17T12:42:22.214Z,103598.60
2023-04-17T12:44:49.055Z,103601.00
2023-04-17T12:47:16.424Z,103606.40
2023-04-17T12:49:43.799Z,103608.60
2023-04-17T12:52:12.036Z,103608.80
2023-04-17T12:54:40.079Z,103610.00
2023-04-17T12:57:06.629Z,103612.40
2023-04-17T12:59:34.195Z,103612.00
2023-04-17T13:02:00.955Z,103604.40
2023-04-17T13:04:27.819Z,103609.80
2023-04-17T13:06:55.871Z,103613.60
2023-04-17T13:09:25.729Z,103616.40
2023-04-17T13:11:57.268Z,103615.00
2023-04-17T13:14:24.597Z,103617.00
2023-04-17T13:16:53.601Z,103619.40
2023-04-17T13:19:21.360Z,103612.40
2023-04-17T13:21:51.703Z,103616.60
2023-04-17T13:24:18.740Z,103611.60
2023-04-17T13:26:54.470Z,103624.20
2023-04-17T13:29:21.153Z,103623.00
2023-04-17T13:31:47.935Z,103621.60
2023-04-17T13:34:14.675Z,103623.80
2023-04-17T13:36:42.364Z,103620.00
2023-04-17T13:39:16.609Z,103619.80
2023-04-17T13:41:47.513Z,103618.40
2023-04-17T13:44:14.462Z,103616.60
2023-04-17T13:46:41.228Z,103625.00
2023-04-17T13:49:10.735Z,103624.40
2023-04-17T13:51:38.229Z,103615.60
2023-04-17T13:54:05.973Z,103620.00
2023-04-17T13:56:35.317Z,103621.20
2023-04-17T13:59:07.631Z,103618.00
2023-04-17T14:01:34.195Z,103618.20
2023-04-17T14:04:01.672Z,103617.60
2023-04-17T14:06:34.830Z,103616.00
2023-04-17T14:09:02.215Z,103617.20
2023-04-17T14:11:32.853Z,103621.60
2023-04-17T14:13:59.289Z,103612.80
2023-04-17T14:16:26.933Z,103615.60
2023-04-17T14:18:54.137Z,103619.00
2023-04-17T14:21:23.895Z,103611.00
2023-04-17T14:23:51.633Z,103613.80
2023-04-17T14:26:18.153Z,103609.20
2023-04-17T14:28:46.766Z,103601.80
2023-04-17T14:31:13.444Z,103616.20
2023-04-17T14:33:40.274Z,103619.40
2023-04-17T14:36:07.109Z,103618.60
2023-04-17T14:38:33.633Z,103616.40
2023-04-17T14:41:00.081Z,103614.20
2023-04-17T14:43:27.248Z,103608.60
2023-04-17T14:45:55.302Z,103613.60
2023-04-17T14:48:23.273Z,103614.20
2023-04-17T14:50:52.364Z,103610.80
2023-04-17T14:53:21.669Z,103604.40
2023-04-17T14:55:51.655Z,103613.60
2023-04-17T14:58:18.669Z,103610.80
2023-04-17T15:00:45.463Z,103615.00
2023-04-17T15:03:17.098Z,103615.40
2023-04-17T15:05:50.918Z,103617.80
2023-04-17T15:08:18.973Z,103616.60
2023-04-17T15:10:51.155Z,103621.40
2023-04-17T15:13:18.296Z,103623.20
2023-04-17T15:15:47.092Z,103624.20
2023-04-17T15:18:13.801Z,103627.20
2023-04-17T15:20:49.421Z,103630.40
2023-04-17T15:23:20.165Z,103622.40
2023-04-17T15:25:47.218Z,103627.20
2023-04-17T15:28:14.077Z,103630.00
2023-04-17T15:30:40.664Z,103633.60
2023-04-17T15:33:09.842Z,103632.00
2023-04-17T15:35:41.974Z,103635.80
2023-04-17T15:38:08.738Z,103633.40
2023-04-17T15:40:35.367Z,103635.20
2023-04-17T15:43:11.939Z,103628.00
2023-04-17T15:45:39.737Z,103628.20
2023-04-17T15:48:08.462Z,103628.20
2023-04-17T15:50:36.841Z,103622.40
2023-04-17T15:53:03.372Z,103632.60
2023-04-17T15:55:30.540Z,103633.00
2023-04-17T15:57:56.936Z,103637.00
2023-04-17T16:00:23.820Z,103648.20
2023-04-17T16:02:51.468Z,103644.80
2023-04-17T16:05:19.665Z,103651.40
2023-04-17T16:07:49.760Z,103649.00
2023-04-17T16:10:19.068Z,103649.00
2023-04-17T16:12:48.357Z,103649.00
2023-04-17T16:15:18.164Z,103648.20
2023-04-17T16:17:45.510Z,103654.60
2023-04-17T16:20:12.761Z,103657.40
2023-04-17T16:22:39.791Z,103654.20
2023-04-17T16:25:08.873Z,103652.40
2023-04-17T16:27:36.401Z,103651.60
2023-04-17T16:30:04.488Z,103653.00
2023-04-17T16:32:31.332Z,103660.20
2023-04-17T16:34:58.534Z,103659.40
2023-04-17T16:37:25.421Z,103657.00
2023-04-17T16:39:52.392Z,103659.60
2023-04-17T16:42:19.156Z,103662.80
2023-04-17T16:44:46.866Z,103665.80
2023-04-17T16:47:14.809Z,103663.80
2023-04-17T16:49:42.110Z,103660.20
2023-04-17T16:52:09.316Z,103670.60
2023-04-17T16:54:36.366Z,103665.20
2023-04-17T16:57:07.313Z,103669.40
2023-04-17T16:59:34.052Z,103660.20
2023-04-17T17:02:02.618Z,103664.40
2023-04-17T17:04:30.193Z,103668.00
2023-04-17T17:06:59.470Z,103668.00
2023-04-17T17:09:27.342Z,103667.00
2023-04-17T17:11:56.182Z,103665.40
2023-04-17T17:14:22.585Z,103662.80
2023-04-17T17:16:49.660Z,103660.80
2023-04-17T17:19:16.268Z,103666.60
2023-04-17T17:21:42.947Z,103669.80
2023-04-17T17:24:09.621Z,103669.40
2023-04-17T17:26:36.205Z,103665.00
2023-04-17T17:29:06.068Z,103666.40
2023-04-17T17:31:34.738Z,103669.40
2023-04-17T17:34:12.007Z,103667.60
2023-04-17T17:36:52.629Z,103664.60
2023-04-17T17:39:21.182Z,103663.60
2023-04-17T17:41:49.039Z,103663.00
2023-04-17T17:44:15.882Z,103664.80
2023-04-17T17:46:43.333Z,103670.80
2023-04-17T17:49:10.760Z,103671.60
2023-04-17T17:51:38.286Z,103674.00
2023-04-17T17:54:07.616Z,103674.60
2023-04-17T17:56:35.022Z,103674.20
2023-04-17T17:59:02.141Z,103670.80
2023-04-17T18:01:34.481Z,103674.00
2023-04-17T18:04:01.716Z,103673.20
2023-04-17T18:06:31.276Z,103675.40
2023-04-17T18:08:59.776Z,103673.00
2023-04-17T18:11:26.841Z,103676.00
2023-04-17T18:13:57.168Z,103681.40
2023-04-17T18:16:24.598Z,103675.00
2023-04-17T18:18:52.664Z,103675.20
2023-04-17T18:21:21.226Z,103676.40
2023-04-17T18:23:47.701Z,103678.60
2023-04-17T18:26:14.267Z,103682.40
2023-04-17T18:28:46.631Z,103685.00
2023-04-17T18:31:16.993Z,103682.20
2023-04-17T18:33:43.867Z,103684.60
2023-04-17T18:36:10.431Z,103683.20
2023-04-17T18:38:36.963Z,103688.00
2023-04-17T18:41:07.361Z,103686.80
2023-04-17T18:43:34.509Z,103687.60
2023-04-17T18:46:09.986Z,103688.80
2023-04-17T18:48:39.294Z,103689.60
2023-04-17T18:51:16.936Z,103692.80
2023-04-17T18:53:47.734Z,103693.00
2023-04-17T18:56:15.324Z,103698.00
2023-04-17T18:58:42.556Z,103692.20
2023-04-17T19:01:10.811Z,103697.80
2023-04-17T19:03:39.428Z,103692.00
2023-04-17T19:06:06.334Z,103693.80
2023-04-17T19:08:33.813Z,103702.00
2023-04-17T19:11:04.549Z,103704.40
2023-04-17T19:13:33.926Z,103706.00
2023-04-17T19:16:01.018Z,103709.00
2023-04-17T19:18:28.850Z,103710.00
2023-04-17T19:20:59.132Z,103714.60
2023-04-17T19:23:27.908Z,103718.20
2023-04-17T19:25:55.959Z,103723.20
2023-04-17T19:28:24.583Z,103726.40
2023-04-17T19:30:52.473Z,103729.60
2023-04-17T19:33:19.707Z,103737.20
2023-04-17T19:35:46.432Z,103738.80
2023-04-17T19:38:14.893Z,103741.60
2023-04-17T19:41:21.424Z,103747.40
2023-04-17T19:43:50.689Z,103752.40
2023-04-17T19:46:19.762Z,103758.00
2023-04-17T19:48:49.881Z,103751.80
2023-04-17T19:51:16.872Z,103757.00
2023-04-17T19:53:46.493Z,103756.40
2023-04-17T19:56:14.471Z,103759.00
2023-04-17T19:58:41.925Z,103765.20
2023-04-17T20:01:08.538Z,103766.00
2023-04-17T20:03:38.437Z,103767.00
2023-04-17T20:06:06.425Z,103766.20
2023-04-17T20:08:36.146Z,103768.80
2023-04-17T20:11:05.642Z,103769.80
2023-04-17T20:13:33.130Z,103766.40
2023-04-17T20:16:01.594Z,103774.00
2023-04-17T20:18:28.010Z,103773.00
2023-04-17T20:20:54.540Z,103774.80
2023-04-17T20:23:21.993Z,103771.40
2023-04-17T20:25:48.883Z,103774.00
2023-04-17T20:28:15.475Z,103780.40
2023-04-17T20:30:42.573Z,103780.80
2023-04-17T20:33:10.687Z,103787.00
2023-04-17T20:35:37.826Z,103791.00
2023-04-17T20:38:04.649Z,103792.00
2023-04-17T20:40:31.635Z,103796.60
2023-04-17T20:43:00.550Z,103803.60
2023-04-17T20:45:27.933Z,103809.40
2023-04-17T20:47:56.882Z,103809.00
2023-04-17T20:50:25.023Z,103816.40
2023-04-17T20:52:54.639Z,103810.80
2023-04-17T20:55:23.579Z,103814.40
2023-04-17T20:57:51.363Z,103815.80
2023-04-17T21:00:18.252Z,103820.20
2023-04-17T21:02:47.982Z,103818.80
2023-04-17T21:05:15.102Z,103821.20
2023-04-17T21:07:44.907Z,103820.80
2023-04-17T21:10:11.679Z,103819.00
2023-04-17T21:12:38.638Z,103822.60
2023-04-17T21:15:09.013Z,103823.80
2023-04-17T21:17:35.946Z,103825.80
2023-04-17T21:20:04.797Z,103828.60
2023-04-17T21:22:32.487Z,103831.40
2023-04-17T21:24:58.982Z,103829.80
2023-04-17T21:27:27.060Z,103833.40
2023-04-17T21:29:55.027Z,103835.20
2023-04-17T21:32:21.903Z,103839.00
2023-04-17T21:34:48.773Z,103844.40
2023-04-17T21:37:17.823Z,103851.60
2023-04-17T21:39:44.752Z,103849.40
2023-04-17T21:42:12.927Z,103844.20
2023-04-17T21:44:39.673Z,103852.40
2023-04-17T21:47:06.169Z,103856.20
2023-04-17T21:49:33.107Z,103854.80
2023-04-17T21:52:02.235Z,103852.60
2023-04-17T21:54:29.158Z,103854.80
2023-04-17T21:56:55.659Z,103856.60
2023-04-17T21:59:24.946Z,103856.40
2023-04-17T22:01:51.825Z,103857.80
2023-04-17T22:04:18.845Z,103854.80
2023-04-17T22:06:45.249Z,103855.60
2023-04-17T22:09:11.853Z,103855.00
2023-04-17T22:11:39.360Z,103861.20
2023-04-17T22:14:07.287Z,103863.60
2023-04-17T22:16:34.392Z,103869.40
2023-04-17T22:19:00.899Z,103870.60
2023-04-17T22:22:24.526Z,103874.60
2023-04-17T22:25:10.085Z,103878.20
2023-04-17T22:28:01.551Z,103879.80
2023-04-17T22:31:44.433Z,103888.20
2023-04-17T22:34:30.258Z,103886.80
2023-04-17T22:38:13.027Z,103891.60
2023-04-17T22:40:59.108Z,103897.60
2023-04-17T22:44:41.716Z,103895.20
2023-04-17T22:47:46.867Z,103896.60
2023-04-17T22:50:13.548Z,103905.80
2023-04-17T22:52:40.237Z,103906.60
2023-04-17T22:55:07.449Z,103912.00
2023-04-17T22:57:34.350Z,103911.40
2023-04-17T23:00:00.866Z,103909.80
2023-04-17T23:02:28.828Z,103917.00
2023-04-17T23:04:55.863Z,103914.20
2023-04-17T23:07:22.791Z,103914.20
2023-04-17T23:09:49.312Z,103916.40
2023-04-17T23:12:15.956Z,103913.00
2023-04-17T23:14:44.628Z,103919.20
2023-04-17T23:17:13.856Z,103926.60
2023-04-17T23:19:42.595Z,103918.20
2023-04-17T23:22:09.418Z,103916.60
2023-04-17T23:24:36.010Z,103919.40
2023-04-17T23:27:02.523Z,103919.40
2023-04-17T23:29:28.991Z,103923.60
2023-04-17T23:31:55.721Z,103924.00
2023-04-17T23:34:22.346Z,103925.20
2023-04-17T23:36:49.281Z,103931.20
2023-04-17T23:39:16.193Z,103925.80
2023-04-17T23:41:47.870Z,103935.40
2023-04-17T23:44:15.599Z,103935.40
2023-04-17T23:46:45.078Z,103933.60
2023-04-17T23:49:12.236Z,103939.00
2023-04-17T23:51:38.851Z,103936.20
2023-04-17T23:54:07.785Z,103938.60
2023-04-17T23:56:35.979Z,103946.20
2023-04-17T23:59:02.882Z,103945.20
